Terminal Aerodrome Forecast
Issued by NWS

Home | Current Version | Previous Version | Graphics & Text | Print | Product List | Glossary On
Versions: 1 2 3 4 5 6 7 8 9 10 11 12 13 14 15 16
355
FTUS41 KCLE 151133
TAFFDY
TAF
KFDY 151133Z 1512/1612 21018G30KT P6SM BKN030 BKN070
     FM151400 23022G32KT P6SM -SHRA VCTS OVC025CB
      TEMPO 1514/1517 26028G38KT 5SM -SHRA BKN035
     FM151700 28025G35KT P6SM OVC025
     FM152200 30015G25KT P6SM BKN035
     FM160000 30013KT P6SM SCT035
     FM160700 30006KT P6SM SCT025=

USA.gov is the U.S. government's official web portal to all federal, state and local government web resources and services.